^^
Station Historical Data
 
Daily Summary for May 22, 2022 Units:  English    Metric   Both
Daily Weekly Monthly Yearly Custom
  Current: High: Low: Average:
Temperature: 56.4 °F 60.9 °F 33.3 °F 47.8 °F
Dew Point: 34.8 °F 36.2 °F 28.7 °F 33.5 °F
Humidity: 44.2% 90.4% 38.5% 61%
Wind Speed: 2.2mph 11mph 0mph 4.2mph
Wind Gust: 2mph 13mph - -
WindSE - - SW
Pressure: 30.05 in 30.27 in 30.04 in -
Precipitation: 0.00 in      
Historical Graphs
 
 
Tabular Data for May 22, 2022
Time Temperature Dew Point Pressure Wind Wind Speed Wind Gust Humidity Rainfall Rate (Hourly) solar
00:04 42.3 °F 33.9 °F 30.25 in WSW 1.7 mph 2 mph 72% 0.00 in 0 W/m2
00:09 42.2 °F 34 °F 30.26 in SSW 1.2 mph 2 mph 72.7% 0.00 in 0 W/m2
00:14 42.1 °F 34 °F 30.26 in SW 1.3 mph 1 mph 73.2% 0.00 in 0 W/m2
00:19 41.9 °F 34 °F 30.26 in WSW 1.5 mph 2 mph 73.2% 0.00 in 0 W/m2
00:24 41.9 °F 34.2 °F 30.25 in SSW 1.5 mph 2 mph 74% 0.00 in 0 W/m2
00:29 41.9 °F 34.1 °F 30.25 in SW 1.5 mph 2 mph 73.7% 0.00 in 0 W/m2
00:34 42 °F 34.1 °F 30.25 in SW 2.3 mph 2 mph 73.4% 0.00 in 0 W/m2
00:39 42.1 °F 34.4 °F 30.25 in WSW 1.2 mph 2 mph 74% 0.00 in 0 W/m2
00:44 42 °F 34.5 °F 30.25 in SSW 1.2 mph 2 mph 74.6% 0.00 in 0 W/m2
00:49 41.8 °F 34.6 °F 30.25 in Calm   1 mph 75.4% 0.00 in 0 W/m2
00:54 41.5 °F 34.6 °F 30.25 in WSW 0.6 mph 0.2 mph 76.1% 0.00 in 0 W/m2
00:59 41.4 °F 34.7 °F 30.25 in SSW 1 mph 1 mph 77.2% 0.00 in 0 W/m2
01:04 41.2 °F 34.8 °F 30.25 in WSW 0.2 mph 1 mph 78% 0.00 in 0 W/m2
01:09 41 °F 34.7 °F 30.25 in South 1.6 mph 2 mph 78% 0.00 in 0 W/m2
01:14 41.2 °F 34.5 °F 30.25 in South 2.3 mph 2 mph 77% 0.00 in 0 W/m2
01:19 41.4 °F 34.7 °F 30.25 in South 3.1 mph 2.5 mph 77% 0.00 in 0 W/m2
01:24 41.5 °F 34.9 °F 30.25 in SSW 3 mph 3 mph 77% 0.00 in 0 W/m2
01:29 41.5 °F 35 °F 30.25 in South 2.3 mph 3 mph 77.2% 0.00 in 0 W/m2
01:34 41.5 °F 34.8 °F 30.25 in South 3.4 mph 2.5 mph 76.6% 0.00 in 0 W/m2
01:39 41.5 °F 34.5 °F 30.25 in South 3.5 mph 3 mph 76% 0.00 in 0 W/m2
01:44 41.5 °F 34.5 °F 30.24 in SSW 2.8 mph 4 mph 76% 0.00 in 0 W/m2
01:49 41.3 °F 34.3 °F 30.24 in SSW 3.2 mph 3 mph 76% 0.00 in 0 W/m2
01:54 40.9 °F 34.5 °F 30.24 in West 2.8 mph 4 mph 77.6% 0.00 in 0 W/m2
01:59 40.6 °F 34.4 °F 30.24 in South 3.9 mph 5 mph 78.4% 0.00 in 0 W/m2
02:04 40.5 °F 34.5 °F 30.25 in South 3.3 mph 5 mph 79% 0.00 in 0 W/m2
02:09 40.2 °F 34.3 °F 30.25 in South 3.5 mph 4 mph 79.4% 0.00 in 0 W/m2
02:14 40 °F 34.3 °F 30.25 in South 3 mph 4 mph 80% 0.00 in 0 W/m2
02:19 39.8 °F 34.1 °F 30.24 in SSW 3.3 mph 3 mph 80% 0.00 in 0 W/m2
02:24 39.7 °F 34 °F 30.24 in South 2.3 mph 4 mph 80% 0.00 in 0 W/m2
02:29 39.6 °F 34 °F 30.24 in South 2.3 mph 3 mph 80.6% 0.00 in 0 W/m2
02:34 39.3 °F 34 °F 30.24 in SSW 3.5 mph 2.5 mph 81% 0.00 in 0 W/m2
02:39 39.2 °F 33.8 °F 30.24 in South 3.3 mph 4 mph 80.8% 0.00 in 0 W/m2
02:44 39.1 °F 33.7 °F 30.24 in SSW 3.4 mph 3 mph 80.6% 0.00 in 0 W/m2
02:49 38.9 °F 33.6 °F 30.24 in SW 2.5 mph 3 mph 81% 0.00 in 0 W/m2
02:54 38.6 °F 33.4 °F 30.24 in West 2.5 mph 2 mph 81.2% 0.00 in 0 W/m2
02:59 38.4 °F 33.1 °F 30.24 in West 2.2 mph 3 mph 81% 0.00 in 0 W/m2
03:04 38.3 °F 33 °F 30.24 in NW 2.3 mph 2 mph 81% 0.00 in 0 W/m2
03:09 38.3 °F 33 °F 30.24 in NW 2.2 mph 2 mph 81% 0.00 in 0 W/m2
03:14 38.1 °F 32.9 °F 30.24 in NW 1.8 mph 2 mph 81.2% 0.00 in 0 W/m2
03:19 37.9 °F 32.9 °F 30.24 in WNW 1 mph 2 mph 82.2% 0.00 in 0 W/m2
03:24 37.6 °F 32.6 °F 30.24 in WNW 2.1 mph 2 mph 82% 0.00 in 0 W/m2
03:29 37.6 °F 32.6 °F 30.24 in WNW 2.3 mph 2 mph 82% 0.00 in 0 W/m2
03:34 37.6 °F 32.6 °F 30.24 in NW 2.3 mph 2 mph 82% 0.00 in 0 W/m2
03:39 37.8 °F 32.8 °F 30.24 in NW 2.3 mph 2 mph 81.8% 0.00 in 0 W/m2
03:44 37.9 °F 32.9 °F 30.24 in NW 2.1 mph 3 mph 82% 0.00 in 0 W/m2
03:49 38 °F 33 °F 30.24 in NNW 2.8 mph 2 mph 82% 0.00 in 0 W/m2
03:54 38 °F 33.4 °F 30.23 in NNW 1 mph 3 mph 83.1% 0.00 in 0 W/m2
03:59 37.8 °F 33.3 °F 30.24 in WSW 1.2 mph 1 mph 83.6% 0.00 in 0 W/m2
04:04 37.5 °F 33.4 °F 30.24 in NW 1.7 mph 1 mph 84.9% 0.00 in 0 W/m2
04:09 37.2 °F 33.1 °F 30.24 in NNW 1.9 mph 2 mph 85% 0.00 in 0 W/m2
04:14 36.9 °F 33.1 °F 30.24 in NNW 1.8 mph 2 mph 86% 0.00 in 0 W/m2
04:19 36.6 °F 33.2 °F 30.24 in NNW 1.8 mph 2 mph 87.1% 0.00 in 0 W/m2
04:24 36.5 °F 33 °F 30.24 in NNW 3.5 mph 3 mph 87.2% 0.00 in 0 W/m2
04:29 36.3 °F 32.1 °F 30.24 in NNW 1.7 mph 3 mph 84.7% 0.00 in 0 W/m2
04:34 36 °F 31.6 °F 30.24 in NW 2.3 mph 2 mph 84.1% 0.00 in 0 W/m2
04:39 35.7 °F 31.4 °F 30.24 in NNW 1.9 mph 2 mph 84.2% 0.00 in 0 W/m2
04:44 35.5 °F 31.1 °F 30.24 in SW 1.2 mph 2 mph 84% 0.00 in 0 W/m2
04:49 35.2 °F 30.9 °F 30.24 in WNW 1.2 mph 1 mph 83.8% 0.00 in 0 W/m2
04:54 35.1 °F 30.8 °F 30.24 in NW 1.5 mph 1 mph 84.2% 0.00 in 0 W/m2
04:59 35 °F 30.6 °F 30.24 in NW 1.6 mph 2 mph 84% 0.00 in 0 W/m2
05:04 34.8 °F 30.7 °F 30.24 in NW 0.1 mph 2 mph 84.8% 0.00 in 0 W/m2
05:09 34.5 °F 30.7 °F 30.24 in NW 1.2 mph 1 mph 85.8% 0.00 in 0 W/m2
05:14 34.3 °F 30.9 °F 30.24 in NNW 1.2 mph 1 mph 87.4% 0.00 in 0 W/m2
05:19 34.1 °F 30.8 °F 30.25 in NNW 1.2 mph 1 mph 87.6% 0.00 in 0 W/m2
05:24 34 °F 30.7 °F 30.25 in NW 1.3 mph 0.9 mph 87.8% 0.00 in 1 W/m2
05:29 33.8 °F 30.6 °F 30.25 in SW 0.5 mph 2 mph 88% 0.00 in 3 W/m2
05:34 33.6 °F 30.4 °F 30.25 in Calm   1 mph 88.1% 0.00 in 4 W/m2
05:39 33.4 °F 30.5 °F 30.25 in WNW 0.8 mph 0.2 mph 89% 0.00 in 7 W/m2
05:44 33.3 °F 30.6 °F 30.25 in NW 0.8 mph 1 mph 89.7% 0.00 in 9 W/m2
05:49 33.4 °F 30.9 °F 30.25 in WNW 1.2 mph 1 mph 90.4% 0.00 in 12 W/m2
05:54 33.6 °F 30.8 °F 30.25 in SW 1.9 mph 1.6 mph 89.4% 0.00 in 15 W/m2
05:59 33.8 °F 30.9 °F 30.25 in WSW 1.1 mph 2 mph 89% 0.00 in 19 W/m2
06:04 33.9 °F 31.1 °F 30.25 in WNW 1.2 mph 1 mph 89.4% 0.00 in 23 W/m2
06:09 34 °F 31.3 °F 30.25 in NW 1.1 mph 2 mph 89.7% 0.00 in 28 W/m2
06:14 34.2 °F 31.5 °F 30.25 in SW 1 mph 1 mph 90% 0.00 in 32 W/m2
06:19 34.4 °F 31.6 °F 30.26 in SW 0.8 mph 2 mph 89.5% 0.00 in 33 W/m2
06:24 34.9 °F 31.8 °F 30.26 in NNW 1.8 mph 2 mph 88.2% 0.00 in 36 W/m2
06:29 35.2 °F 31.8 °F 30.25 in NW 1.9 mph 2 mph 87.2% 0.00 in 36 W/m2
06:34 35.3 °F 32 °F 30.25 in West 1.3 mph 2 mph 87.6% 0.00 in 47 W/m2
06:39 35.7 °F 32.2 °F 30.25 in NW 2.4 mph 2 mph 87% 0.00 in 52 W/m2
06:44 36.3 °F 32.7 °F 30.25 in North 2.3 mph 3 mph 86.8% 0.00 in 53 W/m2
06:49 36.8 °F 33 °F 30.25 in WSW 2.3 mph 2 mph 86% 0.00 in 61 W/m2
06:54 37.1 °F 33.3 °F 30.25 in SW 2.1 mph 2 mph 86.2% 0.00 in 63 W/m2
06:59 37.3 °F 33.5 °F 30.26 in WSW 1.3 mph 2 mph 86% 0.00 in 72 W/m2
07:04 37.5 °F 33.4 °F 30.26 in North 2.3 mph 2 mph 85% 0.00 in 74 W/m2
07:09 37.7 °F 33.3 °F 30.26 in North 3.4 mph 2 mph 83.7% 0.00 in 76 W/m2
07:14 37.8 °F 33.1 °F 30.26 in North 2.7 mph 4 mph 83% 0.00 in 96 W/m2
07:19 37.9 °F 32.9 °F 30.27 in North 4.2 mph 4 mph 82.1% 0.00 in 112 W/m2
07:24 38.2 °F 33.3 °F 30.27 in North 3.8 mph 5 mph 82.2% 0.00 in 112 W/m2
07:29 38.6 °F 33.7 °F 30.27 in North 3.5 mph 4 mph 82.6% 0.00 in 112 W/m2
07:34 39 °F 34.2 °F 30.27 in NNW 3.1 mph 4 mph 82.6% 0.00 in 153 W/m2
07:39 39.6 °F 34.4 °F 30.26 in NNW 3.2 mph 3 mph 81.4% 0.00 in 153 W/m2
07:44 40.2 °F 34.9 °F 30.26 in NNW 2.3 mph 4 mph 81.4% 0.00 in 136 W/m2
07:49 40.7 °F 34.7 °F 30.26 in NNW 2.4 mph 2 mph 79% 0.00 in 141 W/m2
07:54 41.1 °F 35.2 °F 30.26 in NNW 2.3 mph 3 mph 79.4% 0.00 in 133 W/m2
07:59 41.5 °F 35.8 °F 30.26 in East 4.2 mph 3 mph 80.2% 0.00 in 142 W/m2
08:04 41.6 °F 36 °F 30.26 in ENE 3.5 mph 5 mph 80.4% 0.00 in 255 W/m2
08:09 41.7 °F 35.8 °F 30.26 in NNW 3.5 mph 4 mph 79.4% 0.00 in 255 W/m2
08:14 42.2 °F 35.5 °F 30.26 in East 3 mph 4 mph 77% 0.00 in 323 W/m2
08:19 42.4 °F 35.7 °F 30.26 in NW 3.1 mph 3 mph 77% 0.00 in 391 W/m2
08:24 43 °F 35.8 °F 30.26 in NW 3.8 mph 3.1 mph 75.5% 0.00 in 432 W/m2
08:29 44 °F 35.8 °F 30.26 in SW 3.5 mph 5 mph 72.7% 0.00 in 438 W/m2
08:34 44.7 °F 36.1 °F 30.26 in NW 2.7 mph 5 mph 71.7% 0.00 in 463 W/m2
08:39 45.4 °F 36.2 °F 30.25 in ENE 3.6 mph 4 mph 70% 0.00 in 515 W/m2
08:44 45.9 °F 35.8 °F 30.25 in NNW 3.5 mph 4 mph 67.7% 0.00 in 551 W/m2
08:49 46.4 °F 36.1 °F 30.25 in South 3.5 mph 3 mph 67.2% 0.00 in 569 W/m2
08:54 46.5 °F 35.5 °F 30.25 in West 3.5 mph 4 mph 65.4% 0.00 in 262 W/m2
08:59 46.4 °F 34.6 °F 30.25 in SSW 5.3 mph 4 mph 63.2% 0.00 in 298 W/m2
09:04 45.9 °F 34 °F 30.25 in SW 5.2 mph 6 mph 63% 0.00 in 317 W/m2
09:09 45.9 °F 33.1 °F 30.25 in South 4.6 mph 6 mph 60.9% 0.00 in 406 W/m2
09:14 46 °F 33.2 °F 30.25 in SE 4.8 mph 6 mph 60.8% 0.00 in 418 W/m2
09:19 46.2 °F 33.8 °F 30.24 in ESE 4.4 mph 6 mph 61.7% 0.00 in 392 W/m2
09:24 46.2 °F 34 °F 30.24 in SSE 4.6 mph 5 mph 62.1% 0.00 in 476 W/m2
09:29 46.5 °F 33.9 °F 30.24 in SE 5.3 mph 2.2 mph 61.2% 0.00 in 468 W/m2
09:34 46.9 °F 33.5 °F 30.24 in SSW 5.6 mph 6 mph 59.4% 0.00 in 439 W/m2
09:39 46.9 °F 33.7 °F 30.23 in South 5.5 mph 7 mph 59.9% 0.00 in 508 W/m2
09:44 47.4 °F 33.8 °F 30.23 in WSW 4.7 mph 3.4 mph 59% 0.00 in 767 W/m2
09:49 48.6 °F 33.4 °F 30.23 in NNE 3.8 mph 5 mph 55.7% 0.00 in 704 W/m2
09:54 49.8 °F 33.1 °F 30.22 in SE 5.6 mph 4 mph 52.4% 0.00 in 787 W/m2
09:59 50.4 °F 32.1 °F 30.22 in NNE 6.9 mph 7 mph 49.3% 0.00 in 650 W/m2
10:04 50.7 °F 30.7 °F 30.22 in South 9.8 mph 11 mph 46% 0.00 in 548 W/m2
10:09 50.6 °F 30 °F 30.21 in SE 8.1 mph 10 mph 44.9% 0.00 in 548 W/m2
10:14 50.5 °F 29.6 °F 30.21 in ESE 8 mph 8 mph 44.4% 0.00 in 493 W/m2
10:19 50.5 °F 29.4 °F 30.21 in South 9.9 mph 8 mph 44.1% 0.00 in 601 W/m2
10:24 50.5 °F 29.2 °F 30.20 in South 8.9 mph 10 mph 43.6% 0.00 in 819 W/m2
10:29 50.7 °F 28.7 °F 30.20 in South 11 mph 9 mph 42.6% 0.00 in 706 W/m2
10:34 50.9 °F 29.2 °F 30.19 in South 10.2 mph 13 mph 43% 0.00 in 845 W/m2
10:39 51.4 °F 30.4 °F 30.19 in SSE 9.8 mph 11 mph 44.5% 0.00 in 1020 W/m2
10:44 52.1 °F 30.8 °F 30.19 in SSW 9.3 mph 11 mph 44% 0.00 in 1041 W/m2
10:49 51.9 °F 30.7 °F 30.19 in South 8.8 mph 11 mph 44.1% 0.00 in 986 W/m2
10:54 52.1 °F 30.8 °F 30.19 in SSE 10.6 mph 9 mph 44% 0.00 in 1148 W/m2
10:59 52.2 °F 31 °F 30.19 in SSE 9 mph 12 mph 44.1% 0.00 in 1143 W/m2
11:04 52.3 °F 31.7 °F 30.18 in SSW 9.7 mph 9 mph 45.4% 0.00 in 1245 W/m2
11:09 52.7 °F 31.9 °F 30.18 in South 9.9 mph 10 mph 44.9% 0.00 in 1240 W/m2
11:14 53 °F 31.7 °F 30.18 in South 7.5 mph 10 mph 44.1% 0.00 in 1084 W/m2
11:19 52.7 °F 31.9 °F 30.18 in SE 5.7 mph 8 mph 45.1% 0.00 in 759 W/m2
11:24 52.3 °F 32.1 °F 30.18 in SSW 8.7 mph 6 mph 45.9% 0.00 in 1063 W/m2
11:29 51.9 °F 32.6 °F 30.17 in SSE 7.1 mph 9 mph 47.6% 0.00 in 528 W/m2
11:34 51.9 °F 32.3 °F 30.17 in SSE 5.9 mph 9 mph 47.2% 0.00 in 1020 W/m2
11:39 52.1 °F 32.3 °F 30.17 in SSE 7.8 mph 7 mph 46.7% 0.00 in 930 W/m2
11:44 52 °F 32.6 °F 30.17 in NE 7.1 mph 8 mph 47.5% 0.00 in 680 W/m2
11:49 51.5 °F 32.6 °F 30.17 in NNE 5.9 mph 7 mph 48.3% 0.00 in 503 W/m2
11:54 51.1 °F 32.4 °F 30.17 in East 6.3 mph 6 mph 48.7% 0.00 in 458 W/m2
11:59 50.8 °F 32.7 °F 30.17 in East 5.4 mph 7 mph 49.9% 0.00 in 1029 W/m2
12:04 51.4 °F 32.5 °F 30.16 in ENE 4.6 mph 6 mph 48.3% 0.00 in 716 W/m2
12:09 51.1 °F 32 °F 30.16 in East 6 mph 5 mph 47.9% 0.00 in 470 W/m2
12:14 51 °F 32.4 °F 30.16 in SE 5.8 mph 7 mph 49% 0.00 in 568 W/m2
12:19 51.1 °F 31.9 °F 30.16 in ESE 6.7 mph 6 mph 47.7% 0.00 in 516 W/m2
12:24 51.4 °F 32.6 °F 30.15 in ENE 5.3 mph 7 mph 48.5% 0.00 in 910 W/m2
12:29 51.9 °F 32.5 °F 30.15 in NE 5.9 mph 6 mph 47.4% 0.00 in 918 W/m2
12:34 52.1 °F 33 °F 30.15 in SSE 6.5 mph 8 mph 47.9% 0.00 in 649 W/m2
12:39 52.4 °F 32.9 °F 30.15 in West 5.1 mph 8 mph 47.4% 0.00 in 588 W/m2
12:44 53.1 °F 33.3 °F 30.15 in SE 4.7 mph 6 mph 46.9% 0.00 in 1137 W/m2
12:49 53.8 °F 33.5 °F 30.14 in ESE 4.5 mph 5 mph 46% 0.00 in 959 W/m2
12:54 54 °F 33 °F 30.14 in WSW 4.6 mph 5 mph 44.8% 0.00 in 1019 W/m2
12:59 54.3 °F 33.6 °F 30.14 in SSW 4.6 mph 5 mph 45.4% 0.00 in 944 W/m2
13:04 54.6 °F 33.6 °F 30.14 in SSE 5.8 mph 6 mph 45% 0.00 in 874 W/m2
13:09 54.6 °F 33.9 °F 30.13 in SSW 4.2 mph 6 mph 45.3% 0.00 in 928 W/m2
13:14 55 °F 33.9 °F 30.13 in SE 4.5 mph 5 mph 44.6% 0.00 in 1149 W/m2
13:19 55.3 °F 33.5 °F 30.13 in SSE 5.3 mph 6 mph 43.6% 0.00 in 1149 W/m2
13:24 55 °F 34 °F 30.12 in NNW 4.6 mph 6 mph 45% 0.00 in 759 W/m2
13:29 55.1 °F 33.8 °F 30.12 in WSW 5 mph 5 mph 44.5% 0.00 in 1003 W/m2
13:34 55.2 °F 34 °F 30.12 in ESE 8 mph 8 mph 44.6% 0.00 in 979 W/m2
13:39 55 °F 33.1 °F 30.12 in NE 6 mph 8 mph 43.4% 0.00 in 1031 W/m2
13:44 55.3 °F 33.2 °F 30.12 in WNW 4.2 mph 7 mph 42.9% 0.00 in 983 W/m2
13:49 56 °F 33.6 °F 30.11 in SW 5.5 mph 5 mph 42.8% 0.00 in 1068 W/m2
13:54 56.6 °F 33.6 °F 30.11 in SSW 7.6 mph 8 mph 41.7% 0.00 in 1056 W/m2
13:59 57 °F 33.5 °F 30.11 in West 6 mph 8 mph 41% 0.00 in 1048 W/m2
14:04 57.5 °F 33.1 °F 30.10 in WSW 8.2 mph 6 mph 39.6% 0.00 in 1020 W/m2
14:09 57.9 °F 33.7 °F 30.10 in West 7 mph 9 mph 40% 0.00 in 1076 W/m2
14:14 58.8 °F 34.3 °F 30.10 in NNE 5.9 mph 8 mph 39.6% 0.00 in 1043 W/m2
14:19 58.5 °F 34.3 °F 30.09 in South 6.3 mph 7 mph 40.2% 0.00 in 968 W/m2
14:24 57.9 °F 34.3 °F 30.09 in SSE 5.5 mph 7 mph 41% 0.00 in 967 W/m2
14:29 57.9 °F 34.8 °F 30.09 in SSE 4.3 mph 6 mph 41.7% 0.00 in 958 W/m2
14:34 58.1 °F 33.6 °F 30.08 in West 4.6 mph 5 mph 39.6% 0.00 in 922 W/m2
14:39 58.3 °F 33.5 °F 30.08 in West 5.8 mph 5 mph 39.2% 0.00 in 899 W/m2
14:44 58.7 °F 34.1 °F 30.08 in SW 6.7 mph 7 mph 39.5% 0.00 in 825 W/m2
14:49 59 °F 35 °F 30.07 in SSW 5 mph 7 mph 40.6% 0.00 in 803 W/m2
14:54 58.9 °F 34.9 °F 30.07 in SW 5.7 mph 7 mph 40.4% 0.00 in 793 W/m2
14:59 59.1 °F 35.1 °F 30.07 in SW 5 mph 6 mph 40.5% 0.00 in 806 W/m2
15:04 58.9 °F 35.5 °F 30.07 in South 7.4 mph 6 mph 41.3% 0.00 in 774 W/m2
15:09 58.7 °F 34.9 °F 30.07 in SW 5.6 mph 8 mph 40.7% 0.00 in 773 W/m2
15:14 59 °F 34.3 °F 30.06 in WSW 3.5 mph 7 mph 39.4% 0.00 in 793 W/m2
15:19 58.7 °F 35.2 °F 30.06 in SSE 4.5 mph 4 mph 41.2% 0.00 in 758 W/m2
15:24 58.7 °F 34.4 °F 30.06 in SSW 7.5 mph 5 mph 40% 0.00 in 694 W/m2
15:29 58.3 °F 34.4 °F 30.06 in SSE 5.3 mph 8 mph 40.6% 0.00 in 662 W/m2
15:34 58.2 °F 34.1 °F 30.06 in SE 5.7 mph 6 mph 40.3% 0.00 in 656 W/m2
15:39 58.2 °F 33.7 °F 30.06 in SSW 4.3 mph 6 mph 39.7% 0.00 in 654 W/m2
15:44 58.6 °F 33.9 °F 30.06 in West 4 mph 5 mph 39.4% 0.00 in 599 W/m2
15:49 58.9 °F 33.7 °F 30.06 in West 6.4 mph 6 mph 38.5% 0.00 in 608 W/m2
15:54 59.1 °F 34.1 °F 30.06 in West 7.6 mph 8 mph 38.9% 0.00 in 608 W/m2
15:59 59 °F 34.9 °F 30.06 in SW 7.6 mph 8 mph 40.2% 0.00 in 524 W/m2
16:04 58.7 °F 35.3 °F 30.06 in South 7.2 mph 8 mph 41.4% 0.00 in 524 W/m2
16:09 59.3 °F 34.4 °F 30.06 in West 6.1 mph 8 mph 39.2% 0.00 in 521 W/m2
16:14 59.4 °F 34.5 °F 30.06 in WSW 7.7 mph 8 mph 39.2% 0.00 in 519 W/m2
16:19 59.3 °F 35 °F 30.06 in SSE 6.6 mph 8 mph 40.1% 0.00 in 454 W/m2
16:24 58.7 °F 34.9 °F 30.06 in SSW 5.5 mph 7 mph 40.7% 0.00 in 428 W/m2
16:29 58.8 °F 34 °F 30.05 in SW 8.5 mph 9 mph 39.2% 0.00 in 440 W/m2
16:34 59.2 °F 34.6 °F 30.05 in SW 6.8 mph 9 mph 39.6% 0.00 in 456 W/m2
16:39 59.2 °F 34.2 °F 30.05 in WSW 6.9 mph 7 mph 39% 0.00 in 371 W/m2
16:44 59.4 °F 34.1 °F 30.05 in SW 5.3 mph 7 mph 38.7% 0.00 in 456 W/m2
16:49 59.6 °F 34.3 °F 30.05 in WSW 4 mph 6 mph 38.6% 0.00 in 443 W/m2
16:54 59.6 °F 34.6 °F 30.04 in West 4.4 mph 5 mph 39% 0.00 in 446 W/m2
16:59 59.6 °F 35.1 °F 30.04 in South 3.6 mph 5 mph 39.8% 0.00 in 370 W/m2
17:04 59.3 °F 35 °F 30.04 in South 4.2 mph 4 mph 40.2% 0.00 in 596 W/m2
17:09 59.1 °F 34.1 °F 30.04 in West 7.2 mph 5 mph 38.9% 0.00 in 587 W/m2
17:14 59.6 °F 34.3 °F 30.04 in West 7.3 mph 9 mph 38.6% 0.00 in 571 W/m2
17:19 60.6 °F 35.2 °F 30.04 in West 3.5 mph 9 mph 38.6% 0.00 in 532 W/m2
17:24 60.9 °F 35.5 °F 30.04 in SSW 4.8 mph 4.5 mph 38.7% 0.00 in 519 W/m2
17:29 59.9 °F 35.5 °F 30.04 in South 7.9 mph 7 mph 40% 0.00 in 487 W/m2
17:34 59.3 °F 35.2 °F 30.04 in SE 6.3 mph 8 mph 40.3% 0.00 in 464 W/m2
17:39 59.2 °F 34.8 °F 30.04 in SW 6.4 mph 7 mph 39.9% 0.00 in 464 W/m2
17:44 59.4 °F 34.5 °F 30.04 in SW 7.4 mph 7 mph 39.2% 0.00 in 442 W/m2
17:49 59.4 °F 34.5 °F 30.04 in South 7.4 mph 9 mph 39.2% 0.00 in 411 W/m2
17:54 58.9 °F 34.2 °F 30.04 in SSW 5.8 mph 9 mph 39.4% 0.00 in 388 W/m2
17:59 58.5 °F 34.3 °F 30.04 in WSW 5.3 mph 6 mph 40.2% 0.00 in 231 W/m2
18:04 58.5 °F 34 °F 30.04 in WSW 5.1 mph 6 mph 39.6% 0.00 in 100 W/m2
18:09 58.3 °F 34.2 °F 30.04 in SSW 5.8 mph 6 mph 40.3% 0.00 in 96 W/m2
18:14 57.9 °F 34.1 °F 30.04 in SSW 6.3 mph 6 mph 40.7% 0.00 in 81 W/m2
18:19 57.7 °F 34.3 °F 30.04 in SSW 4.9 mph 7 mph 41.2% 0.00 in 77 W/m2
18:24 57.7 °F 34.4 °F 30.04 in SW 3.8 mph 6 mph 41.4% 0.00 in 74 W/m2
18:29 57.7 °F 34.5 °F 30.04 in South 3.5 mph 2.5 mph 41.5% 0.00 in 72 W/m2
18:34 57.6 °F 34.4 °F 30.04 in South 2.9 mph 3 mph 41.6% 0.00 in 72 W/m2
18:39 57.6 °F 34.3 °F 30.04 in SSW 4.9 mph 3.1 mph 41.4% 0.00 in 72 W/m2
18:44 57.6 °F 34.1 °F 30.04 in South 4 mph 6 mph 41.2% 0.00 in 72 W/m2
18:49 57.5 °F 34.2 °F 30.04 in SSW 1.9 mph 4 mph 41.4% 0.00 in 73 W/m2
18:54 57.4 °F 34.6 °F 30.04 in SSW 2.6 mph 2.5 mph 42.2% 0.00 in 77 W/m2
18:59 57.5 °F 34.6 °F 30.04 in SSW 3.5 mph 4 mph 42.2% 0.00 in 74 W/m2
19:04 57.5 °F 34.6 °F 30.04 in SW 2.3 mph 4 mph 42% 0.00 in 64 W/m2
19:09 57.4 °F 35 °F 30.04 in SW 2.7 mph 3 mph 42.9% 0.00 in 61 W/m2
19:14 57.3 °F 34.7 °F 30.04 in West 1.7 mph 4 mph 42.5% 0.00 in 61 W/m2
19:19 57.2 °F 34.6 °F 30.04 in SSW 3.4 mph 2.2 mph 42.6% 0.00 in 55 W/m2
19:24 57 °F 34.9 °F 30.05 in West 2.1 mph 4 mph 43.3% 0.00 in 52 W/m2
19:29 56.8 °F 34.4 °F 30.05 in WNW 2.2 mph 2 mph 42.6% 0.00 in 45 W/m2
19:34 56.8 °F 34.4 °F 30.05 in SSW 2.1 mph 3 mph 42.8% 0.00 in 40 W/m2
19:39 56.6 °F 34.5 °F 30.05 in SW 1.3 mph 2 mph 43.2% 0.00 in 35 W/m2
19:44 56.4 °F 34.8 °F 30.05 in SE 2.2 mph 2 mph 44.2% 0.00 in 32 W/m2
The Lakes at Centerra, Loveland, Colorado, USA
Compliments of Weather Underground - 2 mb